EDMA/AGB METAR and TAF weather

Enter ICAO airport designator
Station Type Date Time Source
EDMA METAR 2020/01/23 08:50 UTC NOAA

EDMA 230850Z 09007KT 060V120 4700 BR OVC005 M03/M04 Q1032


Station Type Date Time Source
EDMA Decoded METAR 2020/01/23 08:50 UTC NOAA

Augsburg, Germany (EDMA) 48-26N 010-56E 463M
Jan 23, 2020 - 03:50 AM EST / 2020.01.23 0850 UTC
Wind: from the E (090 degrees) at 8 MPH (7 KT) (direction variable):0
Visibility: 2 mile(s):0
Sky conditions: overcast
Weather: mist
Temperature: 26 F (-3 C)
Windchill: 17 F (-8 C):1
Dew Point: 24 F (-4 C)
Relative Humidity: 92%
Pressure (altimeter): 30.47 in. Hg (1032 hPa)
ob: EDMA 230850Z 09007KT 060V120 4700 BR OVC005 M03/M04 Q1032
cycle: 9

Station Type Date Time Source
EDMA TAF 2010/02/22 13:50 UTC NOAA

METAR EDMA 221350Z 23006KT CAVOK 10/02 Q0996

Example: see airport list